Rhodes, Michigan
Current Conditions -  °F | °C
As of 2:11 PM on Monday 20 Oct 2014 (Local Time) from KIKW Reporting Station
Overcast Overcast  
Wind Chill: 56°   Ceiling: 1700
Heat Index: 56°   Visibility: 7mi
Dew Point: 49°   Wind: 5mph
Humidity: 75%   Direction: 290°WNW
Pressure: 29.77"   Gusts: NA
Location:  43.9°N, 84.18°W
Report Text: KIKW 201811Z AUTO 29004KT 7SM BKN017 OVC070 14/09 A2977 RMK AO2 T01350092
Loading
Personal Weather Stations






























Interactive Weather Map
Tropical Storm Tracking
New forecast layout! Learn more

10-Day Weather Forecast

Advertisements
Track Severe Weather on mobile